Time;durP1;ratioP1;P1;durP2;ratioP2;P2;SDS_P1;SDS_P2;PMS_P1;PMS_P2;Temp;Humidity;BMP_temperature;BMP_pressure;BME280_temperature;BME280_humidity;BME280_pressure;Samples;Min_cycle;Max_cycle;Signal;HPM_P1;HPM_P2
2022/03/20 00:02:28;;;;;;;79.92;30.02;;;;;;;;;;1779037;81;21080;-71
2022/03/20 00:04:54;;;;;;;82.00;31.00;;;;;;;;;;1778584;81;21037;-71
2022/03/20 00:07:21;;;;;;;83.75;31.82;;;;;;;;;;1779109;81;21108;-70
2022/03/20 00:09:52;;;;;;;86.55;32.58;;;;;;;;;;1778686;81;21029;-72
2022/03/20 00:12:20;;;;;;;88.45;33.15;;;;;;;;;;1781081;80;21092;-70
2022/03/20 00:14:47;;;;;;;71.72;31.40;;;;;;;;;;1784460;80;21497;-71
2022/03/20 00:17:15;;;;;;;81.17;31.27;;;;;;;;;;1784556;80;21091;-71
2022/03/20 00:19:41;;;;;;;86.53;31.85;;;;;;;;;;1784704;80;21057;-71
2022/03/20 00:22:11;;;;;;;92.10;34.48;;;;;;;;;;1784427;80;21064;-71
2022/03/20 00:24:41;;;;;;;81.92;26.37;;;;;;;;;;1784634;80;21068;-71
2022/03/20 00:27:09;;;;;;;88.20;31.23;;;;;;;;;;1784970;80;21572;-71
2022/03/20 00:29:36;;;;;;;68.97;26.42;;;;;;;;;;1784761;80;21516;-71
2022/03/20 00:32:03;;;;;;;78.17;28.65;;;;;;;;;;1784679;80;21048;-70
2022/03/20 00:34:30;;;;;;;78.28;27.80;;;;;;;;;;1784863;80;21021;-70
2022/03/20 00:36:56;;;;;;;83.85;32.90;;;;;;;;;;1784733;80;21513;-71
2022/03/20 00:39:23;;;;;;;71.42;26.40;;;;;;;;;;1784894;80;21064;-71
2022/03/20 00:41:50;;;;;;;63.55;28.07;;;;;;;;;;1784418;80;21024;-71
2022/03/20 00:44:17;;;;;;;63.63;25.57;;;;;;;;;;1784904;80;21049;-71
2022/03/20 00:46:44;;;;;;;88.52;32.28;;;;;;;;;;1784930;80;21053;-71
2022/03/20 00:49:11;;;;;;;72.08;26.20;;;;;;;;;;1785037;80;21025;-71
2022/03/20 00:51:38;;;;;;;62.08;24.05;;;;;;;;;;1784711;80;21521;-71
2022/03/20 00:54:04;;;;;;;59.48;22.93;;;;;;;;;;1784471;80;21021;-71
2022/03/20 00:56:31;;;;;;;61.30;28.85;;;;;;;;;;1784769;80;21028;-71
2022/03/20 00:58:57;;;;;;;51.23;21.42;;;;;;;;;;1784724;80;21025;-71
2022/03/20 01:04:14;;;;;;;78.75;27.02;;;;;;;;;;1708849;79;74944;-70
2022/03/20 01:06:41;;;;;;;60.12;26.12;;;;;;;;;;1689395;85;21045;-71
2022/03/20 01:09:07;;;;;;;69.12;24.52;;;;;;;;;;1689166;85;21582;-71
2022/03/20 01:11:34;;;;;;;72.62;26.12;;;;;;;;;;1689376;85;21129;-71
2022/03/20 01:14:03;;;;;;;62.27;22.10;;;;;;;;;;1689045;85;21073;-71
2022/03/20 01:16:30;;;;;;;69.72;25.72;;;;;;;;;;1689225;85;21060;-71
2022/03/20 01:18:56;;;;;;;77.40;27.73;;;;;;;;;;1689058;85;21116;-72
2022/03/20 01:21:23;;;;;;;68.33;25.15;;;;;;;;;;1689261;85;21092;-71
2022/03/20 01:23:50;;;;;;;57.15;21.57;;;;;;;;;;1689110;85;21089;-70
2022/03/20 01:26:17;;;;;;;62.85;20.52;;;;;;;;;;1660419;86;21560;-71
2022/03/20 01:28:43;;;;;;;54.93;21.37;;;;;;;;;;1660126;86;21083;-71
2022/03/20 01:31:10;;;;;;;52.65;21.57;;;;;;;;;;1632132;88;21553;-71
2022/03/20 01:33:36;;;;;;;63.63;23.73;;;;;;;;;;1660297;86;21045;-71
2022/03/20 01:36:03;;;;;;;64.27;22.93;;;;;;;;;;1660047;86;21046;-71
2022/03/20 01:38:30;;;;;;;64.53;24.27;;;;;;;;;;1632140;88;21021;-71
2022/03/20 01:40:57;;;;;;;65.00;23.00;;;;;;;;;;1660118;86;21482;-71
2022/03/20 01:43:23;;;;;;;60.35;22.27;;;;;;;;;;1660293;86;21058;-72
2022/03/20 01:45:50;;;;;;;60.40;22.60;;;;;;;;;;1631941;88;21093;-72
2022/03/20 01:48:16;;;;;;;58.90;21.30;;;;;;;;;;1660486;86;21053;-72
2022/03/20 01:50:43;;;;;;;54.30;19.23;;;;;;;;;;1660140;86;21069;-71
2022/03/20 01:53:10;;;;;;;69.62;26.70;;;;;;;;;;1632219;88;21077;-71
2022/03/20 01:55:37;;;;;;;66.10;21.70;;;;;;;;;;1660030;86;21006;-71
2022/03/20 01:58:04;;;;;;;70.30;24.52;;;;;;;;;;1660341;86;21514;-71
2022/03/20 02:00:36;;;;;;;84.35;28.35;;;;;;;;;;1631916;88;21077;-71
2022/03/20 02:02:59;;;;;;;65.97;22.80;;;;;;;;;;1659622;85;21050;-71
2022/03/20 02:05:31;;;;;;;65.12;23.90;;;;;;;;;;1660972;86;21084;-71
2022/03/20 02:08:00;;;;;;;70.95;25.43;;;;;;;;;;1692726;85;21072;-71
2022/03/20 02:10:35;;;;;;;76.25;26.65;;;;;;;;;;1692570;85;21080;-71
2022/03/20 02:12:57;;;;;;;59.73;21.93;;;;;;;;;;1691905;85;21624;-71
2022/03/20 02:15:23;;;;;;;79.17;27.58;;;;;;;;;;1692865;85;21057;-71
2022/03/20 02:17:52;;;;;;;86.30;29.45;;;;;;;;;;1692699;85;21038;-71
2022/03/20 02:20:20;;;;;;;66.67;24.32;;;;;;;;;;1693021;85;21072;-72
2022/03/20 02:22:47;;;;;;;72.67;26.68;;;;;;;;;;1692938;85;21552;-71
2022/03/20 02:27:40;;;;;;;87.97;29.95;;;;;;;;;;1819966;79;22750;-71
2022/03/20 02:30:13;;;;;;;104.53;31.77;;;;;;;;;;1793173;80;21024;-71
2022/03/20 02:32:36;;;;;;;95.25;33.15;;;;;;;;;;1793006;80;21558;-71
2022/03/20 02:35:05;;;;;;;111.52;34.43;;;;;;;;;;1793251;80;21535;-71
2022/03/20 02:37:33;;;;;;;80.92;27.10;;;;;;;;;;1792816;80;21091;-71
2022/03/20 02:40:01;;;;;;;74.47;25.40;;;;;;;;;;1793128;80;21052;-71
2022/03/20 02:42:29;;;;;;;67.00;25.15;;;;;;;;;;1793070;80;21036;-71
2022/03/20 02:44:58;;;;;;;79.05;25.55;;;;;;;;;;1793214;80;21065;-71
2022/03/20 02:47:26;;;;;;;79.55;28.95;;;;;;;;;;1792839;80;21118;-71
2022/03/20 02:49:58;;;;;;;69.75;25.50;;;;;;;;;;1792972;80;21052;-71
2022/03/20 02:52:28;;;;;;;66.28;24.55;;;;;;;;;;1793059;80;21028;-71
2022/03/20 02:54:55;;;;;;;96.78;30.52;;;;;;;;;;1792870;80;21028;-71
2022/03/20 02:57:21;;;;;;;86.63;26.50;;;;;;;;;;1793159;80;21072;-71
2022/03/20 02:59:49;;;;;;;73.75;27.37;;;;;;;;;;1792800;80;21543;-71
2022/03/20 03:02:15;;;;;;;81.10;27.80;;;;;;;;;;1793208;80;21091;-71
2022/03/20 03:04:43;;;;;;;70.08;26.57;;;;;;;;;;1792633;79;21068;-70
2022/03/20 03:07:10;;;;;;;75.22;25.90;;;;;;;;;;1793121;80;21048;-71
2022/03/20 03:12:24;;;;;;;92.05;29.85;;;;;;;;;;1793040;80;21055;-70
2022/03/20 03:17:36;;;;;;;71.35;24.05;;;;;;;;;;1792918;80;21100;-71
2022/03/20 03:20:04;;;;;;;81.57;27.32;;;;;;;;;;1792694;80;21039;-71
2022/03/20 03:22:30;;;;;;;66.85;23.80;;;;;;;;;;1792904;80;21020;-71
2022/03/20 03:24:57;;;;;;;82.37;26.62;;;;;;;;;;1792844;80;21503;-71
2022/03/20 03:27:23;;;;;;;79.42;28.45;;;;;;;;;;1788892;80;21064;-71
2022/03/20 03:29:51;;;;;;;75.20;26.52;;;;;;;;;;1787663;80;20993;-71
2022/03/20 03:32:18;;;;;;;75.15;24.15;;;;;;;;;;1788160;80;21560;-72
2022/03/20 03:37:32;;;;;;;68.95;25.95;;;;;;;;;;1787771;80;21068;-71
2022/03/20 03:39:59;;;;;;;70.08;22.45;;;;;;;;;;1787118;80;21048;-71
2022/03/20 03:42:28;;;;;;;88.72;29.48;;;;;;;;;;1787558;80;21024;-72
2022/03/20 03:44:56;;;;;;;89.70;27.30;;;;;;;;;;1787338;80;21025;-71
2022/03/20 03:47:24;;;;;;;78.97;28.07;;;;;;;;;;1787659;80;21615;-71
2022/03/20 03:49:51;;;;;;;92.82;33.13;;;;;;;;;;1787408;80;21590;-71
2022/03/20 03:52:19;;;;;;;61.92;25.30;;;;;;;;;;1787429;80;21033;-71
2022/03/20 03:54:46;;;;;;;66.53;23.22;;;;;;;;;;1787521;80;21098;-70
2022/03/20 03:57:13;;;;;;;79.53;26.17;;;;;;;;;;1787553;80;21044;-72
2022/03/20 03:59:41;;;;;;;77.35;24.15;;;;;;;;;;1787389;80;21009;-71
2022/03/20 04:02:09;;;;;;;73.92;24.95;;;;;;;;;;1787367;80;21562;-72
2022/03/20 04:04:35;;;;;;;67.97;24.82;;;;;;;;;;1787418;79;21072;-71
2022/03/20 04:07:03;;;;;;;59.15;22.80;;;;;;;;;;1787221;80;21559;-71
2022/03/20 04:09:30;;;;;;;77.15;26.90;;;;;;;;;;1787553;80;20965;-71
2022/03/20 04:11:57;;;;;;;65.67;24.12;;;;;;;;;;1787347;80;21115;-71
2022/03/20 04:14:26;;;;;;;93.50;28.92;;;;;;;;;;1787454;80;21052;-71
2022/03/20 04:16:54;;;;;;;69.75;24.47;;;;;;;;;;1787272;80;21615;-71
2022/03/20 04:19:21;;;;;;;71.17;25.40;;;;;;;;;;1787259;80;21060;-71
2022/03/20 04:21:48;;;;;;;61.55;22.25;;;;;;;;;;1787500;80;21104;-72
2022/03/20 04:24:14;;;;;;;79.25;28.70;;;;;;;;;;1787449;80;21001;-72
2022/03/20 04:26:41;;;;;;;76.33;28.98;;;;;;;;;;1784127;80;21068;-72
2022/03/20 04:29:07;;;;;;;82.05;31.37;;;;;;;;;;1778890;81;21531;-71
2022/03/20 04:31:35;;;;;;;71.55;24.67;;;;;;;;;;1778021;81;20994;-71
2022/03/20 04:34:04;;;;;;;82.22;28.77;;;;;;;;;;1778595;81;21055;-70
2022/03/20 04:36:30;;;;;;;78.22;28.77;;;;;;;;;;1778989;81;21021;-71
2022/03/20 04:38:59;;;;;;;106.35;33.88;;;;;;;;;;1778731;81;21080;-70
2022/03/20 04:41:26;;;;;;;78.07;28.07;;;;;;;;;;1778856;81;21069;-70
2022/03/20 04:43:53;;;;;;;59.63;23.30;;;;;;;;;;1778587;81;21597;-71
2022/03/20 04:46:20;;;;;;;84.55;28.75;;;;;;;;;;1778920;81;21080;-71
2022/03/20 04:59:47;;;;;;;87.55;30.40;;;;;;;;;;1778776;81;21551;-70
2022/03/20 05:02:14;;;;;;;107.85;33.60;;;;;;;;;;1778677;81;21080;-71
2022/03/20 05:04:40;;;;;;;72.50;26.77;;;;;;;;;;1778573;79;21663;-71
2022/03/20 05:07:08;;;;;;;108.95;37.53;;;;;;;;;;1778579;81;21068;-71
2022/03/20 05:15:07;;;;;;;104.87;34.05;;;;;;;;;;1778761;81;21053;-71
2022/03/20 05:17:33;;;;;;;118.53;39.18;;;;;;;;;;1778918;81;21068;-71
2022/03/20 05:20:02;;;;;;;116.47;40.48;;;;;;;;;;1778792;81;21037;-71
2022/03/20 05:22:32;;;;;;;134.57;41.42;;;;;;;;;;1778821;81;21559;-70
2022/03/20 05:24:59;;;;;;;96.10;31.73;;;;;;;;;;1778927;81;21049;-71
2022/03/20 05:27:26;;;;;;;70.65;27.48;;;;;;;;;;1778613;81;21223;-71
2022/03/20 05:29:53;;;;;;;126.90;41.18;;;;;;;;;;1778732;81;21089;-72
2022/03/20 05:32:20;;;;;;;104.47;36.40;;;;;;;;;;1778910;81;21024;-72
2022/03/20 05:34:47;;;;;;;103.10;34.13;;;;;;;;;;1778799;81;21005;-72
2022/03/20 05:37:14;;;;;;;109.72;36.93;;;;;;;;;;1778819;81;21056;-71
2022/03/20 05:39:41;;;;;;;89.20;32.95;;;;;;;;;;1778627;81;21096;-71
2022/03/20 05:42:08;;;;;;;85.30;32.25;;;;;;;;;;1779020;81;21033;-71
2022/03/20 05:44:35;;;;;;;93.62;33.70;;;;;;;;;;1778660;81;21111;-71
2022/03/20 05:47:02;;;;;;;87.37;31.35;;;;;;;;;;1778878;81;21080;-71
2022/03/20 05:49:29;;;;;;;82.72;30.95;;;;;;;;;;1778664;81;21084;-71
2022/03/20 05:51:57;;;;;;;82.00;30.08;;;;;;;;;;1778677;81;21093;-70
2022/03/20 05:54:24;;;;;;;107.80;37.20;;;;;;;;;;1778558;81;21614;-71
2022/03/20 05:59:37;;;;;;;92.10;33.50;;;;;;;;;;1778478;81;21056;-70
2022/03/20 06:02:04;;;;;;;92.92;32.05;;;;;;;;;;1778783;81;21049;-70
2022/03/20 06:04:33;;;;;;;93.62;33.15;;;;;;;;;;1778482;79;21092;-71
2022/03/20 06:07:00;;;;;;;102.35;35.92;;;;;;;;;;1778810;81;21041;-71
2022/03/20 06:09:26;;;;;;;108.07;35.80;;;;;;;;;;1778427;81;21052;-71
2022/03/20 06:11:53;;;;;;;103.62;36.05;;;;;;;;;;1778920;81;21052;-71
2022/03/20 06:14:21;;;;;;;78.87;30.88;;;;;;;;;;1778658;81;21057;-71
2022/03/20 06:16:48;;;;;;;97.82;35.48;;;;;;;;;;1778768;81;21063;-71
2022/03/20 06:19:15;;;;;;;77.67;30.15;;;;;;;;;;1778845;81;21004;-71
2022/03/20 06:21:42;;;;;;;79.65;29.48;;;;;;;;;;1778647;81;21028;-71
2022/03/20 06:24:09;;;;;;;94.25;31.93;;;;;;;;;;1778708;81;21040;-71
2022/03/20 06:26:36;;;;;;;87.10;31.65;;;;;;;;;;1779286;80;21575;-70
2022/03/20 06:29:07;;;;;;;75.15;28.40;;;;;;;;;;1786773;80;21563;-70
2022/03/20 06:31:33;;;;;;;75.45;28.40;;;;;;;;;;1786811;80;21060;-71
2022/03/20 06:34:00;;;;;;;97.78;40.23;;;;;;;;;;1786938;80;21556;-71
2022/03/20 06:36:27;;;;;;;93.47;42.60;;;;;;;;;;1787116;80;21001;-71
2022/03/20 06:38:54;;;;;;;89.03;37.13;;;;;;;;;;1786943;80;21024;-71
2022/03/20 06:41:21;;;;;;;86.02;36.80;;;;;;;;;;1786894;80;21061;-70
2022/03/20 06:43:47;;;;;;;75.40;36.60;;;;;;;;;;1787188;80;21102;-71
2022/03/20 06:46:15;;;;;;;84.40;35.25;;;;;;;;;;1786874;80;21076;-70
2022/03/20 06:48:42;;;;;;;84.22;34.88;;;;;;;;;;1787341;80;21036;-71
2022/03/20 06:51:08;;;;;;;71.45;28.73;;;;;;;;;;1787005;80;21586;-71
2022/03/20 06:53:35;;;;;;;71.67;32.58;;;;;;;;;;1787289;80;21040;-70
2022/03/20 06:56:04;;;;;;;64.85;27.90;;;;;;;;;;1786893;80;21407;-71
2022/03/20 06:58:31;;;;;;;63.65;25.90;;;;;;;;;;1787449;80;21028;-72
2022/03/20 07:00:58;;;;;;;60.05;30.23;;;;;;;;;;1786958;80;21072;-71
2022/03/20 07:03:25;;;;;;;49.45;22.07;;;;;;;;;;1786947;80;21564;-72
2022/03/20 07:05:52;;;;;;;52.38;26.95;;;;;;;;;;1786833;80;21020;-70
2022/03/20 07:08:20;;;;;;;50.35;22.00;;;;;;;;;;1787051;80;21032;-70
2022/03/20 07:10:48;;;;;;;42.48;19.65;;;;;;;;;;1786786;80;21028;-71
2022/03/20 07:16:00;;;;;;;41.48;21.52;;;;;;;;;;1787061;80;21059;-71
2022/03/20 07:18:27;;;;;;;30.68;14.63;;;;;;;;;;1787337;80;21088;-71
2022/03/20 07:20:55;;;;;;;37.63;18.30;;;;;;;;;;1786930;80;21024;-71
2022/03/20 07:23:22;;;;;;;39.73;19.17;;;;;;;;;;1787349;80;21063;-71
2022/03/20 07:31:19;;;;;;;34.73;18.90;;;;;;;;;;1778801;81;21017;-71
2022/03/20 07:33:48;;;;;;;25.50;12.45;;;;;;;;;;1778660;81;21025;-72
2022/03/20 07:36:15;;;;;;;26.95;13.85;;;;;;;;;;1778884;81;21071;-71
2022/03/20 07:38:41;;;;;;;30.97;15.40;;;;;;;;;;1778781;81;21029;-71
2022/03/20 07:41:07;;;;;;;29.07;14.23;;;;;;;;;;1778789;81;20981;-71
2022/03/20 07:43:34;;;;;;;34.20;13.38;;;;;;;;;;1778643;81;21519;-71
2022/03/20 07:46:01;;;;;;;25.25;12.60;;;;;;;;;;1779013;81;21100;-70
2022/03/20 07:48:28;;;;;;;20.88;11.22;;;;;;;;;;1778791;81;21024;-71
2022/03/20 07:50:55;;;;;;;19.82;10.43;;;;;;;;;;1778790;81;21021;-71
2022/03/20 07:53:23;;;;;;;16.27;9.53;;;;;;;;;;1778760;81;21057;-71
2022/03/20 07:55:50;;;;;;;13.18;6.80;;;;;;;;;;1778872;81;21580;-71
2022/03/20 07:58:17;;;;;;;17.30;9.73;;;;;;;;;;1778920;81;21048;-71
2022/03/20 08:00:44;;;;;;;13.50;7.30;;;;;;;;;;1778640;81;21049;-70
2022/03/20 08:03:10;;;;;;;10.85;6.80;;;;;;;;;;1779239;79;21624;-70
2022/03/20 08:05:38;;;;;;;10.55;6.08;;;;;;;;;;1779142;81;21073;-69
2022/03/20 08:08:05;;;;;;;14.35;7.12;;;;;;;;;;1779233;81;21068;-70
2022/03/20 08:10:33;;;;;;;11.95;7.35;;;;;;;;;;1778520;81;20978;-70
2022/03/20 08:13:00;;;;;;;10.20;5.90;;;;;;;;;;1778964;81;21068;-70
2022/03/20 08:15:26;;;;;;;10.85;6.58;;;;;;;;;;1778840;81;21572;-71
2022/03/20 08:17:55;;;;;;;12.00;6.53;;;;;;;;;;1779023;81;21074;-71
2022/03/20 08:20:22;;;;;;;10.35;6.00;;;;;;;;;;1778703;81;21037;-72
2022/03/20 08:22:49;;;;;;;10.00;6.15;;;;;;;;;;1779007;81;21033;-71
2022/03/20 08:25:15;;;;;;;7.53;5.12;;;;;;;;;;1778591;81;21131;-71
2022/03/20 08:27:44;;;;;;;11.12;6.22;;;;;;;;;;1778886;80;21127;-71
2022/03/20 08:30:13;;;;;;;10.70;6.20;;;;;;;;;;1778814;81;21561;-71
2022/03/20 08:32:40;;;;;;;9.05;6.50;;;;;;;;;;1778811;81;21574;-72
2022/03/20 08:35:07;;;;;;;9.95;5.67;;;;;;;;;;1778885;81;21021;-72
2022/03/20 08:37:35;;;;;;;9.18;5.35;;;;;;;;;;1778779;81;21048;-71
2022/03/20 08:40:03;;;;;;;9.65;5.78;;;;;;;;;;1778734;81;21053;-72
2022/03/20 08:42:30;;;;;;;9.28;5.08;;;;;;;;;;1778772;81;21669;-71
2022/03/20 08:44:57;;;;;;;8.40;5.35;;;;;;;;;;1778831;81;21084;-74
2022/03/20 08:47:25;;;;;;;11.80;5.47;;;;;;;;;;1778876;81;21012;-70
2022/03/20 08:49:52;;;;;;;8.18;5.00;;;;;;;;;;1778820;81;21013;-71
2022/03/20 08:52:19;;;;;;;8.83;5.65;;;;;;;;;;1778691;81;21068;-71
2022/03/20 08:54:45;;;;;;;9.58;6.00;;;;;;;;;;1778748;81;21503;-71
2022/03/20 08:57:15;;;;;;;8.75;5.25;;;;;;;;;;1778792;81;20965;-71
2022/03/20 08:59:40;;;;;;;9.00;5.75;;;;;;;;;;1778442;80;20985;-71
2022/03/20 09:02:06;;;;;;;10.50;5.75;;;;;;;;;;1778700;81;21036;-72
2022/03/20 09:04:34;;;;;;;8.20;4.92;;;;;;;;;;1772807;80;21072;-72
2022/03/20 09:07:03;;;;;;;12.03;5.05;;;;;;;;;;1778399;81;21005;-71
2022/03/20 09:09:29;;;;;;;8.80;4.53;;;;;;;;;;1778926;81;21053;-70
2022/03/20 09:11:56;;;;;;;12.82;7.33;;;;;;;;;;1778826;81;20981;-72
2022/03/20 09:14:22;;;;;;;9.70;6.00;;;;;;;;;;1778649;81;21563;-71
2022/03/20 09:19:37;;;;;;;8.00;5.40;;;;;;;;;;1778527;81;21536;-72
2022/03/20 09:22:06;;;;;;;9.50;6.20;;;;;;;;;;1778729;81;21048;-71
2022/03/20 09:24:32;;;;;;;9.63;5.22;;;;;;;;;;1779023;81;21537;-71
2022/03/20 09:27:01;;;;;;;9.20;5.60;;;;;;;;;;1778937;81;21588;-72
2022/03/20 09:29:28;;;;;;;9.55;5.53;;;;;;;;;;1778784;80;21536;-70
2022/03/20 09:31:57;;;;;;;12.53;7.12;;;;;;;;;;1778768;80;21060;-72
2022/03/20 09:34:24;;;;;;;8.65;5.55;;;;;;;;;;1778782;81;21112;-70
2022/03/20 09:36:51;;;;;;;10.10;6.25;;;;;;;;;;1778824;81;21064;-71
2022/03/20 09:39:17;;;;;;;10.63;5.87;;;;;;;;;;1778788;81;21079;-71
2022/03/20 09:41:46;;;;;;;10.43;6.50;;;;;;;;;;1778913;81;21540;-71
2022/03/20 09:44:15;;;;;;;8.58;5.62;;;;;;;;;;1778656;81;21016;-72
2022/03/20 09:46:43;;;;;;;10.28;6.60;;;;;;;;;;1778632;81;21072;-72
2022/03/20 09:49:10;;;;;;;8.03;4.92;;;;;;;;;;1778786;81;21063;-71
2022/03/20 09:51:37;;;;;;;9.45;5.85;;;;;;;;;;1778756;81;21574;-71
2022/03/20 09:54:04;;;;;;;10.23;6.15;;;;;;;;;;1779012;81;21069;-72
2022/03/20 09:56:32;;;;;;;8.95;5.15;;;;;;;;;;1779062;81;21072;-71
2022/03/20 09:58:59;;;;;;;11.12;6.12;;;;;;;;;;1778912;81;21064;-72
2022/03/20 10:01:26;;;;;;;8.55;5.55;;;;;;;;;;1778636;81;21512;-71
2022/03/20 10:04:05;;;;;;;8.75;5.85;;;;;;;;;;1778709;79;21086;-71
2022/03/20 10:06:34;;;;;;;10.32;5.70;;;;;;;;;;1778647;81;21032;-72
2022/03/20 10:09:06;;;;;;;11.05;7.05;;;;;;;;;;1778910;81;21067;-71
2022/03/20 10:11:33;;;;;;;7.35;4.70;;;;;;;;;;1778623;81;21029;-72
2022/03/20 10:14:09;;;;;;;10.78;6.05;;;;;;;;;;1778250;80;21009;-72
2022/03/20 10:16:37;;;;;;;8.58;5.37;;;;;;;;;;1778521;81;21537;-71
2022/03/20 10:19:24;;;;;;;9.08;5.05;;;;;;;;;;1778828;81;21604;-72
2022/03/20 10:21:51;;;;;;;8.18;5.50;;;;;;;;;;1778802;81;21092;-72
2022/03/20 10:24:19;;;;;;;8.85;5.67;;;;;;;;;;1778815;81;21036;-72
2022/03/20 10:26:45;;;;;;;7.67;4.42;;;;;;;;;;1778539;81;21590;-71
2022/03/20 10:29:15;;;;;;;6.10;4.10;;;;;;;;;;1743296;82;21060;-71
2022/03/20 10:31:50;;;;;;;8.05;4.35;;;;;;;;;;1756072;82;21009;-71
2022/03/20 10:34:17;;;;;;;10.08;5.78;;;;;;;;;;1756333;81;21033;-71
2022/03/20 10:36:44;;;;;;;8.40;4.50;;;;;;;;;;1756230;82;21025;-71
2022/03/20 10:39:16;;;;;;;7.55;5.28;;;;;;;;;;1756094;82;21599;-71
2022/03/20 10:41:43;;;;;;;8.45;4.83;;;;;;;;;;1755858;82;21112;-71
2022/03/20 10:44:16;;;;;;;7.53;4.33;;;;;;;;;;1756142;81;21469;-71
2022/03/20 10:46:46;;;;;;;7.00;4.80;;;;;;;;;;1755887;82;21072;-71
2022/03/20 10:49:13;;;;;;;6.53;4.40;;;;;;;;;;1755308;81;21592;-72
2022/03/20 10:51:42;;;;;;;9.13;5.00;;;;;;;;;;1737050;82;21544;-72
2022/03/20 10:54:20;;;;;;;11.97;5.05;;;;;;;;;;1756021;82;21057;-71
2022/03/20 10:56:59;;;;;;;9.40;4.95;;;;;;;;;;1756178;81;21112;-71
2022/03/20 10:59:26;;;;;;;8.95;4.97;;;;;;;;;;1756154;81;21552;-71
2022/03/20 11:01:53;;;;;;;8.78;5.45;;;;;;;;;;1756395;81;21067;-72
2022/03/20 11:04:20;;;;;;;7.17;4.70;;;;;;;;;;1755921;82;21081;-71
2022/03/20 11:06:48;;;;;;;8.88;5.65;;;;;;;;;;1756197;82;21529;-70
2022/03/20 11:09:16;;;;;;;7.42;5.22;;;;;;;;;;1756062;82;21505;-71
2022/03/20 11:11:51;;;;;;;7.10;4.40;;;;;;;;;;1756319;82;21036;-71
2022/03/20 11:14:21;;;;;;;9.43;5.00;;;;;;;;;;1756283;81;21056;-71
2022/03/20 11:16:52;;;;;;;8.98;5.17;;;;;;;;;;1756425;82;21034;-71
2022/03/20 11:19:18;;;;;;;8.73;5.45;;;;;;;;;;1755891;81;21102;-71
2022/03/20 11:21:47;;;;;;;6.90;4.45;;;;;;;;;;1756543;81;21513;-71
2022/03/20 11:24:17;;;;;;;7.42;5.00;;;;;;;;;;1756294;81;21005;-71
2022/03/20 11:26:44;;;;;;;7.47;3.80;;;;;;;;;;1756442;82;21525;-71
2022/03/20 11:29:11;;;;;;;9.43;5.50;;;;;;;;;;1773251;80;21061;-72
2022/03/20 11:31:38;;;;;;;7.70;4.80;;;;;;;;;;1787518;80;21017;-72
2022/03/20 11:34:10;;;;;;;6.33;4.53;;;;;;;;;;1787241;80;21016;-71
2022/03/20 11:36:52;;;;;;;8.48;5.05;;;;;;;;;;1786734;80;21001;-71
2022/03/20 11:39:19;;;;;;;9.00;4.37;;;;;;;;;;1787178;80;21047;-70
2022/03/20 11:41:47;;;;;;;6.85;4.45;;;;;;;;;;1787338;80;21071;-70
2022/03/20 11:44:15;;;;;;;7.97;6.17;;;;;;;;;;1756395;80;21603;-70
2022/03/20 11:46:44;;;;;;;6.65;4.80;;;;;;;;;;1787108;80;21485;-70
2022/03/20 11:49:20;;;;;;;8.55;5.37;;;;;;;;;;1786983;80;21028;-71
2022/03/20 11:51:52;;;;;;;8.33;4.70;;;;;;;;;;1787200;80;21570;-70
2022/03/20 11:54:19;;;;;;;9.68;5.90;;;;;;;;;;1787017;80;21055;-70
2022/03/20 11:56:47;;;;;;;10.50;6.20;;;;;;;;;;1787220;80;21036;-70
2022/03/20 11:59:34;;;;;;;8.20;5.72;;;;;;;;;;1786989;80;21048;-71
2022/03/20 12:02:01;;;;;;;9.38;5.33;;;;;;;;;;1749523;81;21623;-71
2022/03/20 12:04:30;;;;;;;9.80;5.37;;;;;;;;;;1750042;82;21012;-72
2022/03/20 12:07:10;;;;;;;8.85;4.83;;;;;;;;;;1763223;80;21041;-71
2022/03/20 12:09:38;;;;;;;8.90;6.42;;;;;;;;;;1786818;80;21064;-72
2022/03/20 12:12:07;;;;;;;11.25;7.72;;;;;;;;;;1786916;80;21079;-71
2022/03/20 12:14:39;;;;;;;12.20;8.58;;;;;;;;;;1786890;80;21044;-71
2022/03/20 12:17:08;;;;;;;16.85;9.33;;;;;;;;;;1786970;80;22198;-72
2022/03/20 12:19:41;;;;;;;11.57;7.55;;;;;;;;;;1787315;80;21492;-71
2022/03/20 12:22:15;;;;;;;8.55;5.95;;;;;;;;;;1786899;80;21096;-71
2022/03/20 12:24:49;;;;;;;10.43;7.37;;;;;;;;;;1787262;80;21060;-72
2022/03/20 12:27:22;;;;;;;12.45;9.35;;;;;;;;;;1787145;80;21071;-72
2022/03/20 12:29:54;;;;;;;12.28;8.23;;;;;;;;;;1787053;80;21088;-71
2022/03/20 12:32:21;;;;;;;14.00;8.20;;;;;;;;;;1786866;80;21045;-71
2022/03/20 12:34:59;;;;;;;11.97;7.60;;;;;;;;;;1787091;80;21048;-71
2022/03/20 12:37:37;;;;;;;10.53;7.42;;;;;;;;;;1786833;80;21493;-71
2022/03/20 12:40:03;;;;;;;15.10;10.23;;;;;;;;;;1786030;80;21063;-70
2022/03/20 12:42:31;;;;;;;13.15;8.70;;;;;;;;;;1786924;80;21099;-71
2022/03/20 12:44:57;;;;;;;12.70;7.97;;;;;;;;;;1787156;80;21068;-72
2022/03/20 12:47:25;;;;;;;11.57;7.70;;;;;;;;;;1787157;80;21021;-72
2022/03/20 12:49:54;;;;;;;13.25;7.95;;;;;;;;;;1787081;80;21032;-72
2022/03/20 12:52:20;;;;;;;11.70;6.30;;;;;;;;;;1782533;80;21072;-72
2022/03/20 12:54:57;;;;;;;12.43;8.25;;;;;;;;;;1787354;80;21068;-71
2022/03/20 12:57:43;;;;;;;15.15;8.05;;;;;;;;;;1787263;80;21056;-72
2022/03/20 13:00:14;;;;;;;14.35;7.92;;;;;;;;;;1787285;80;21017;-70
2022/03/20 13:02:57;;;;;;;12.37;6.60;;;;;;;;;;1786598;79;21119;-70
2022/03/20 13:05:24;;;;;;;11.05;6.15;;;;;;;;;;1787295;80;21490;-71
2022/03/20 13:07:53;;;;;;;8.83;6.30;;;;;;;;;;1787421;80;21020;-70
2022/03/20 13:10:20;;;;;;;12.50;6.40;;;;;;;;;;1787747;80;21051;-70
2022/03/20 13:13:01;;;;;;;12.25;7.87;;;;;;;;;;1786787;80;21553;-71
2022/03/20 13:15:31;;;;;;;14.07;7.37;;;;;;;;;;1786850;80;21083;-71
2022/03/20 13:17:58;;;;;;;8.58;5.70;;;;;;;;;;1786825;80;21564;-71
2022/03/20 13:20:26;;;;;;;10.38;6.97;;;;;;;;;;1787069;80;21143;-72
2022/03/20 13:22:53;;;;;;;12.85;8.80;;;;;;;;;;1787084;80;21001;-71
2022/03/20 13:25:20;;;;;;;10.03;6.83;;;;;;;;;;1786968;80;21617;-71
2022/03/20 13:27:50;;;;;;;13.78;5.87;;;;;;;;;;1787118;80;21056;-72
2022/03/20 13:30:17;;;;;;;11.45;7.70;;;;;;;;;;1787175;80;21043;-70
2022/03/20 13:32:45;;;;;;;8.93;5.75;;;;;;;;;;1787050;80;21047;-71
2022/03/20 13:35:11;;;;;;;8.83;5.95;;;;;;;;;;1787144;80;20985;-71
2022/03/20 13:37:38;;;;;;;8.73;4.70;;;;;;;;;;1787097;80;21110;-71
2022/03/20 13:40:06;;;;;;;7.70;4.15;;;;;;;;;;1786749;80;21535;-71
2022/03/20 13:42:33;;;;;;;9.28;5.05;;;;;;;;;;1787136;80;21071;-71
2022/03/20 13:45:01;;;;;;;5.12;3.65;;;;;;;;;;1786780;80;21029;-71
2022/03/20 13:47:30;;;;;;;7.37;4.83;;;;;;;;;;1787166;80;21494;-71
2022/03/20 13:50:00;;;;;;;7.85;5.55;;;;;;;;;;1787221;80;21024;-71
2022/03/20 13:52:35;;;;;;;8.43;5.12;;;;;;;;;;1787318;80;21027;-71
2022/03/20 13:57:30;;;;;;;6.70;4.90;;;;;;;;;;1819741;79;23032;-70
2022/03/20 14:00:00;;;;;;;9.70;5.22;;;;;;;;;;1792892;80;21028;-71
2022/03/20 14:02:29;;;;;;;8.75;5.53;;;;;;;;;;1791193;80;21095;-71
2022/03/20 14:04:57;;;;;;;8.25;5.25;;;;;;;;;;1791295;80;21013;-71
2022/03/20 14:07:24;;;;;;;8.93;5.08;;;;;;;;;;1793065;80;21075;-71
2022/03/20 14:09:51;;;;;;;9.15;4.97;;;;;;;;;;1793035;80;21055;-71
2022/03/20 14:12:23;;;;;;;7.03;4.33;;;;;;;;;;1792967;80;21079;-71
2022/03/20 14:14:51;;;;;;;7.85;4.60;;;;;;;;;;1793365;80;21064;-71
2022/03/20 14:17:23;;;;;;;7.85;4.67;;;;;;;;;;1793027;80;21539;-71
2022/03/20 14:19:50;;;;;;;7.70;4.85;;;;;;;;;;1793214;80;20998;-71
2022/03/20 14:22:18;;;;;;;7.70;4.28;;;;;;;;;;1793396;80;21531;-71
2022/03/20 14:25:02;;;;;;;7.22;4.08;;;;;;;;;;1793261;80;21535;-71
2022/03/20 14:27:25;;;;;;;6.65;3.47;;;;;;;;;;1791465;80;21044;-71
2022/03/20 14:40:55;;;;;;;5.65;3.00;;;;;;;;;;1786350;80;21032;-71
2022/03/20 14:44:31;;;;;;;13.98;3.33;;;;;;;;;;1819860;79;22449;-71
2022/03/20 14:47:04;;;;;;;5.72;3.02;;;;;;;;;;1793287;80;20965;-71
2022/03/20 14:49:28;;;;;;;5.28;3.60;;;;;;;;;;1792055;80;21071;-71
2022/03/20 14:51:55;;;;;;;6.03;3.25;;;;;;;;;;1792949;80;21051;-71
2022/03/20 14:54:22;;;;;;;4.50;2.80;;;;;;;;;;1793104;80;21106;-71
2022/03/20 14:56:49;;;;;;;4.08;3.05;;;;;;;;;;1792673;80;21556;-71
2022/03/20 14:59:16;;;;;;;5.85;3.17;;;;;;;;;;1792702;80;21048;-71
2022/03/20 15:01:44;;;;;;;9.30;4.90;;;;;;;;;;1791034;80;21052;-71
2022/03/20 15:04:12;;;;;;;5.95;4.10;;;;;;;;;;1760157;81;21056;-71
2022/03/20 15:06:46;;;;;;;5.92;4.08;;;;;;;;;;1760089;81;21113;-71
2022/03/20 15:11:56;;;;;;;8.63;5.25;;;;;;;;;;1760286;81;21008;-71
2022/03/20 15:14:23;;;;;;;7.62;4.60;;;;;;;;;;1760192;81;21615;-71
2022/03/20 15:16:49;;;;;;;6.53;4.47;;;;;;;;;;1760212;81;21040;-71
2022/03/20 15:19:17;;;;;;;17.57;6.70;;;;;;;;;;1759976;81;21052;-70
2022/03/20 15:21:45;;;;;;;8.48;5.05;;;;;;;;;;1760299;81;21343;-71
2022/03/20 15:24:13;;;;;;;7.35;5.00;;;;;;;;;;1760282;81;21638;-72
2022/03/20 15:26:41;;;;;;;9.50;5.72;;;;;;;;;;1760177;81;21024;-71
2022/03/20 15:29:08;;;;;;;10.35;5.70;;;;;;;;;;1760272;81;21013;-71
2022/03/20 15:31:36;;;;;;;8.35;5.47;;;;;;;;;;1760323;81;21004;-71
2022/03/20 15:34:05;;;;;;;8.85;4.90;;;;;;;;;;1760330;81;21527;-71